sensor_id;sensor_type;location;lat;lon;timestamp;P1;durP1;ratioP1;P2;durP2;ratioP2
70312;SDS011;57723;51.698;5.344;2023-07-09T00:00:43;8.23;;;3.88;;
70312;SDS011;57723;51.698;5.344;2023-07-09T00:03:11;6.30;;;3.70;;
70312;SDS011;57723;51.698;5.344;2023-07-09T00:05:37;6.97;;;3.92;;
70312;SDS011;57723;51.698;5.344;2023-07-09T00:08:02;7.85;;;3.90;;
70312;SDS011;57723;51.698;5.344;2023-07-09T00:10:27;7.30;;;3.93;;
70312;SDS011;57723;51.698;5.344;2023-07-09T00:12:53;10.03;;;4.20;;
70312;SDS011;57723;51.698;5.344;2023-07-09T00:15:18;7.63;;;4.07;;
70312;SDS011;57723;51.698;5.344;2023-07-09T00:17:44;6.43;;;4.10;;
70312;SDS011;57723;51.698;5.344;2023-07-09T00:20:14;7.90;;;3.95;;
70312;SDS011;57723;51.698;5.344;2023-07-09T00:22:43;7.05;;;4.30;;
70312;SDS011;57723;51.698;5.344;2023-07-09T00:25:13;6.70;;;3.87;;
70312;SDS011;57723;51.698;5.344;2023-07-09T00:27:41;6.80;;;4.13;;
70312;SDS011;57723;51.698;5.344;2023-07-09T00:30:13;7.60;;;4.00;;
70312;SDS011;57723;51.698;5.344;2023-07-09T00:32:40;8.27;;;4.75;;
70312;SDS011;57723;51.698;5.344;2023-07-09T00:35:08;6.88;;;4.07;;
70312;SDS011;57723;51.698;5.344;2023-07-09T00:37:34;6.70;;;4.00;;
70312;SDS011;57723;51.698;5.344;2023-07-09T00:39:59;9.17;;;4.60;;
70312;SDS011;57723;51.698;5.344;2023-07-09T00:42:24;6.73;;;3.87;;
70312;SDS011;57723;51.698;5.344;2023-07-09T00:44:53;7.00;;;4.40;;
70312;SDS011;57723;51.698;5.344;2023-07-09T00:50:00;7.43;;;4.20;;
70312;SDS011;57723;51.698;5.344;2023-07-09T00:52:28;7.68;;;4.25;;
70312;SDS011;57723;51.698;5.344;2023-07-09T00:54:58;8.02;;;3.97;;
70312;SDS011;57723;51.698;5.344;2023-07-09T00:57:25;8.07;;;4.40;;
70312;SDS011;57723;51.698;5.344;2023-07-09T00:59:59;7.88;;;4.30;;
70312;SDS011;57723;51.698;5.344;2023-07-09T01:02:34;7.00;;;4.10;;
70312;SDS011;57723;51.698;5.344;2023-07-09T01:05:00;6.57;;;4.20;;
70312;SDS011;57723;51.698;5.344;2023-07-09T01:07:26;9.18;;;4.25;;
70312;SDS011;57723;51.698;5.344;2023-07-09T01:09:52;8.23;;;4.17;;
70312;SDS011;57723;51.698;5.344;2023-07-09T01:12:18;7.32;;;4.07;;
70312;SDS011;57723;51.698;5.344;2023-07-09T01:14:45;8.10;;;4.40;;
70312;SDS011;57723;51.698;5.344;2023-07-09T01:17:13;7.82;;;4.32;;
70312;SDS011;57723;51.698;5.344;2023-07-09T01:19:41;7.40;;;4.23;;
70312;SDS011;57723;51.698;5.344;2023-07-09T01:22:15;8.00;;;4.18;;
70312;SDS011;57723;51.698;5.344;2023-07-09T01:25:03;6.57;;;4.15;;
70312;SDS011;57723;51.698;5.344;2023-07-09T01:27:33;7.13;;;4.20;;
70312;SDS011;57723;51.698;5.344;2023-07-09T01:29:59;6.20;;;4.05;;
70312;SDS011;57723;51.698;5.344;2023-07-09T01:32:25;8.50;;;4.03;;
70312;SDS011;57723;51.698;5.344;2023-07-09T01:34:51;8.13;;;4.30;;
70312;SDS011;57723;51.698;5.344;2023-07-09T01:37:21;7.90;;;4.27;;
70312;SDS011;57723;51.698;5.344;2023-07-09T01:39:48;7.15;;;4.22;;
70312;SDS011;57723;51.698;5.344;2023-07-09T01:42:14;9.80;;;4.00;;
70312;SDS011;57723;51.698;5.344;2023-07-09T01:44:40;7.00;;;4.28;;
70312;SDS011;57723;51.698;5.344;2023-07-09T01:47:06;7.07;;;4.13;;
70312;SDS011;57723;51.698;5.344;2023-07-09T01:49:31;7.18;;;4.35;;
70312;SDS011;57723;51.698;5.344;2023-07-09T01:51:58;7.53;;;4.07;;
70312;SDS011;57723;51.698;5.344;2023-07-09T01:54:25;7.00;;;4.13;;
70312;SDS011;57723;51.698;5.344;2023-07-09T01:56:51;7.00;;;4.40;;
70312;SDS011;57723;51.698;5.344;2023-07-09T01:59:16;6.33;;;3.83;;
70312;SDS011;57723;51.698;5.344;2023-07-09T02:01:41;6.77;;;4.40;;
70312;SDS011;57723;51.698;5.344;2023-07-09T02:04:07;6.57;;;4.43;;
70312;SDS011;57723;51.698;5.344;2023-07-09T02:06:32;6.30;;;4.00;;
70312;SDS011;57723;51.698;5.344;2023-07-09T02:08:58;10.63;;;4.40;;
70312;SDS011;57723;51.698;5.344;2023-07-09T02:11:24;7.67;;;4.70;;
70312;SDS011;57723;51.698;5.344;2023-07-09T02:13:49;8.07;;;4.68;;
70312;SDS011;57723;51.698;5.344;2023-07-09T02:16:15;7.17;;;4.27;;
70312;SDS011;57723;51.698;5.344;2023-07-09T02:18:40;8.30;;;4.77;;
70312;SDS011;57723;51.698;5.344;2023-07-09T02:21:05;8.47;;;4.90;;
70312;SDS011;57723;51.698;5.344;2023-07-09T02:23:30;8.50;;;4.77;;
70312;SDS011;57723;51.698;5.344;2023-07-09T02:25:55;8.20;;;4.97;;
70312;SDS011;57723;51.698;5.344;2023-07-09T02:28:21;7.70;;;5.10;;
70312;SDS011;57723;51.698;5.344;2023-07-09T02:30:48;8.47;;;4.93;;
70312;SDS011;57723;51.698;5.344;2023-07-09T02:33:14;9.63;;;5.00;;
70312;SDS011;57723;51.698;5.344;2023-07-09T02:35:39;8.00;;;4.87;;
70312;SDS011;57723;51.698;5.344;2023-07-09T02:38:05;7.65;;;4.93;;
70312;SDS011;57723;51.698;5.344;2023-07-09T02:40:30;7.77;;;4.43;;
70312;SDS011;57723;51.698;5.344;2023-07-09T02:42:56;6.80;;;4.57;;
70312;SDS011;57723;51.698;5.344;2023-07-09T02:45:21;8.63;;;5.17;;
70312;SDS011;57723;51.698;5.344;2023-07-09T02:47:47;7.33;;;4.47;;
70312;SDS011;57723;51.698;5.344;2023-07-09T02:50:12;7.50;;;4.70;;
70312;SDS011;57723;51.698;5.344;2023-07-09T02:52:37;7.27;;;4.37;;
70312;SDS011;57723;51.698;5.344;2023-07-09T02:55:03;7.07;;;4.85;;
70312;SDS011;57723;51.698;5.344;2023-07-09T02:57:29;8.07;;;4.97;;
70312;SDS011;57723;51.698;5.344;2023-07-09T02:59:54;7.63;;;4.93;;
70312;SDS011;57723;51.698;5.344;2023-07-09T03:02:19;6.70;;;4.30;;
70312;SDS011;57723;51.698;5.344;2023-07-09T03:04:45;7.57;;;4.30;;
70312;SDS011;57723;51.698;5.344;2023-07-09T03:07:10;7.23;;;4.57;;
70312;SDS011;57723;51.698;5.344;2023-07-09T03:09:35;7.70;;;4.57;;
70312;SDS011;57723;51.698;5.344;2023-07-09T03:12:00;7.27;;;4.20;;
70312;SDS011;57723;51.698;5.344;2023-07-09T03:14:26;10.10;;;4.50;;
70312;SDS011;57723;51.698;5.344;2023-07-09T03:16:51;6.80;;;4.60;;
70312;SDS011;57723;51.698;5.344;2023-07-09T03:19:17;7.30;;;4.83;;
70312;SDS011;57723;51.698;5.344;2023-07-09T03:21:42;7.50;;;4.95;;
70312;SDS011;57723;51.698;5.344;2023-07-09T03:24:08;8.47;;;4.83;;
70312;SDS011;57723;51.698;5.344;2023-07-09T03:26:33;8.60;;;4.70;;
70312;SDS011;57723;51.698;5.344;2023-07-09T03:28:59;8.23;;;5.40;;
70312;SDS011;57723;51.698;5.344;2023-07-09T03:31:24;8.47;;;4.87;;
70312;SDS011;57723;51.698;5.344;2023-07-09T03:33:50;8.77;;;4.97;;
70312;SDS011;57723;51.698;5.344;2023-07-09T03:36:15;8.93;;;4.65;;
70312;SDS011;57723;51.698;5.344;2023-07-09T03:38:41;7.33;;;4.80;;
70312;SDS011;57723;51.698;5.344;2023-07-09T03:41:06;7.03;;;4.83;;
70312;SDS011;57723;51.698;5.344;2023-07-09T03:43:31;8.20;;;4.80;;
70312;SDS011;57723;51.698;5.344;2023-07-09T03:45:57;9.43;;;5.50;;
70312;SDS011;57723;51.698;5.344;2023-07-09T03:48:22;7.37;;;4.73;;
70312;SDS011;57723;51.698;5.344;2023-07-09T03:50:47;7.90;;;4.87;;
70312;SDS011;57723;51.698;5.344;2023-07-09T03:53:13;8.63;;;5.25;;
70312;SDS011;57723;51.698;5.344;2023-07-09T03:55:39;9.35;;;5.05;;
70312;SDS011;57723;51.698;5.344;2023-07-09T03:58:05;8.30;;;5.20;;
70312;SDS011;57723;51.698;5.344;2023-07-09T04:00:31;8.15;;;4.90;;
70312;SDS011;57723;51.698;5.344;2023-07-09T04:02:57;8.17;;;5.03;;
70312;SDS011;57723;51.698;5.344;2023-07-09T04:05:23;8.10;;;4.72;;
70312;SDS011;57723;51.698;5.344;2023-07-09T04:07:48;8.53;;;5.00;;
70312;SDS011;57723;51.698;5.344;2023-07-09T04:10:13;10.00;;;5.22;;
70312;SDS011;57723;51.698;5.344;2023-07-09T04:12:39;7.93;;;5.23;;
70312;SDS011;57723;51.698;5.344;2023-07-09T04:15:04;7.93;;;4.93;;
70312;SDS011;57723;51.698;5.344;2023-07-09T04:17:30;9.02;;;4.88;;
70312;SDS011;57723;51.698;5.344;2023-07-09T04:19:56;7.77;;;5.10;;
70312;SDS011;57723;51.698;5.344;2023-07-09T04:22:21;7.13;;;4.67;;
70312;SDS011;57723;51.698;5.344;2023-07-09T04:24:46;8.27;;;4.93;;
70312;SDS011;57723;51.698;5.344;2023-07-09T04:27:12;7.75;;;4.75;;
70312;SDS011;57723;51.698;5.344;2023-07-09T04:29:39;8.63;;;4.72;;
70312;SDS011;57723;51.698;5.344;2023-07-09T04:32:04;8.60;;;4.80;;
70312;SDS011;57723;51.698;5.344;2023-07-09T04:34:30;9.25;;;4.90;;
70312;SDS011;57723;51.698;5.344;2023-07-09T04:36:55;8.23;;;5.23;;
70312;SDS011;57723;51.698;5.344;2023-07-09T04:39:20;7.37;;;4.60;;
70312;SDS011;57723;51.698;5.344;2023-07-09T04:41:46;9.30;;;5.00;;
70312;SDS011;57723;51.698;5.344;2023-07-09T04:44:11;7.93;;;4.97;;
70312;SDS011;57723;51.698;5.344;2023-07-09T04:46:37;8.17;;;5.10;;
70312;SDS011;57723;51.698;5.344;2023-07-09T04:49:03;7.93;;;5.10;;
70312;SDS011;57723;51.698;5.344;2023-07-09T04:51:28;7.57;;;4.80;;
70312;SDS011;57723;51.698;5.344;2023-07-09T04:53:53;9.40;;;5.13;;
70312;SDS011;57723;51.698;5.344;2023-07-09T04:56:19;8.13;;;4.73;;
70312;SDS011;57723;51.698;5.344;2023-07-09T04:58:44;7.80;;;4.50;;
70312;SDS011;57723;51.698;5.344;2023-07-09T05:01:10;7.13;;;4.50;;
70312;SDS011;57723;51.698;5.344;2023-07-09T05:03:35;8.43;;;4.90;;
70312;SDS011;57723;51.698;5.344;2023-07-09T05:06:01;7.07;;;4.77;;
70312;SDS011;57723;51.698;5.344;2023-07-09T05:08:26;6.57;;;4.50;;
70312;SDS011;57723;51.698;5.344;2023-07-09T05:10:56;7.67;;;4.83;;
70312;SDS011;57723;51.698;5.344;2023-07-09T05:13:21;6.68;;;4.50;;
70312;SDS011;57723;51.698;5.344;2023-07-09T05:15:47;5.97;;;4.43;;
70312;SDS011;57723;51.698;5.344;2023-07-09T05:18:13;7.03;;;4.37;;
70312;SDS011;57723;51.698;5.344;2023-07-09T05:20:39;6.55;;;4.38;;
70312;SDS011;57723;51.698;5.344;2023-07-09T05:23:05;8.82;;;5.05;;
70312;SDS011;57723;51.698;5.344;2023-07-09T05:25:30;7.60;;;4.60;;
70312;SDS011;57723;51.698;5.344;2023-07-09T05:27:56;7.25;;;4.70;;
70312;SDS011;57723;51.698;5.344;2023-07-09T05:30:22;6.57;;;4.20;;
70312;SDS011;57723;51.698;5.344;2023-07-09T05:32:48;7.30;;;4.63;;
70312;SDS011;57723;51.698;5.344;2023-07-09T05:35:13;8.07;;;4.67;;
70312;SDS011;57723;51.698;5.344;2023-07-09T05:37:39;7.30;;;4.50;;
70312;SDS011;57723;51.698;5.344;2023-07-09T05:40:07;6.73;;;4.60;;
70312;SDS011;57723;51.698;5.344;2023-07-09T05:42:36;8.18;;;5.05;;
70312;SDS011;57723;51.698;5.344;2023-07-09T05:45:10;7.40;;;4.80;;
70312;SDS011;57723;51.698;5.344;2023-07-09T05:47:39;7.57;;;4.57;;
70312;SDS011;57723;51.698;5.344;2023-07-09T05:50:11;7.45;;;4.78;;
70312;SDS011;57723;51.698;5.344;2023-07-09T05:52:41;6.97;;;4.47;;
70312;SDS011;57723;51.698;5.344;2023-07-09T05:55:07;7.20;;;4.47;;
70312;SDS011;57723;51.698;5.344;2023-07-09T05:57:42;7.43;;;4.43;;
70312;SDS011;57723;51.698;5.344;2023-07-09T06:00:12;5.85;;;4.13;;
70312;SDS011;57723;51.698;5.344;2023-07-09T06:02:42;8.02;;;4.80;;
70312;SDS011;57723;51.698;5.344;2023-07-09T06:05:07;8.73;;;4.25;;
70312;SDS011;57723;51.698;5.344;2023-07-09T06:07:55;6.82;;;4.30;;
70312;SDS011;57723;51.698;5.344;2023-07-09T06:10:27;7.57;;;4.67;;
70312;SDS011;57723;51.698;5.344;2023-07-09T06:15:47;8.20;;;4.40;;
70312;SDS011;57723;51.698;5.344;2023-07-09T06:18:22;9.23;;;4.50;;
70312;SDS011;57723;51.698;5.344;2023-07-09T06:20:58;7.78;;;4.55;;
70312;SDS011;57723;51.698;5.344;2023-07-09T06:23:30;7.27;;;4.40;;
70312;SDS011;57723;51.698;5.344;2023-07-09T06:25:56;6.07;;;4.20;;
70312;SDS011;57723;51.698;5.344;2023-07-09T06:28:25;8.68;;;4.40;;
70312;SDS011;57723;51.698;5.344;2023-07-09T06:30:50;8.45;;;4.53;;
70312;SDS011;57723;51.698;5.344;2023-07-09T06:33:16;8.13;;;4.50;;
70312;SDS011;57723;51.698;5.344;2023-07-09T06:35:48;6.77;;;4.50;;
70312;SDS011;57723;51.698;5.344;2023-07-09T06:38:14;7.18;;;4.10;;
70312;SDS011;57723;51.698;5.344;2023-07-09T06:40:40;6.80;;;4.50;;
70312;SDS011;57723;51.698;5.344;2023-07-09T06:43:05;6.83;;;4.13;;
70312;SDS011;57723;51.698;5.344;2023-07-09T06:45:30;7.67;;;4.43;;
70312;SDS011;57723;51.698;5.344;2023-07-09T06:47:57;7.45;;;4.30;;
70312;SDS011;57723;51.698;5.344;2023-07-09T06:50:22;8.07;;;4.37;;
70312;SDS011;57723;51.698;5.344;2023-07-09T06:52:47;9.67;;;4.40;;
70312;SDS011;57723;51.698;5.344;2023-07-09T06:55:13;7.40;;;4.30;;
70312;SDS011;57723;51.698;5.344;2023-07-09T06:57:38;8.00;;;4.47;;
70312;SDS011;57723;51.698;5.344;2023-07-09T07:00:04;7.83;;;4.47;;
70312;SDS011;57723;51.698;5.344;2023-07-09T07:02:30;7.22;;;4.45;;
70312;SDS011;57723;51.698;5.344;2023-07-09T07:04:55;7.00;;;4.50;;
70312;SDS011;57723;51.698;5.344;2023-07-09T07:07:21;6.77;;;4.47;;
70312;SDS011;57723;51.698;5.344;2023-07-09T07:09:46;7.10;;;4.60;;
70312;SDS011;57723;51.698;5.344;2023-07-09T07:12:40;8.67;;;4.70;;
70312;SDS011;57723;51.698;5.344;2023-07-09T07:15:05;9.68;;;4.57;;
70312;SDS011;57723;51.698;5.344;2023-07-09T07:17:47;8.80;;;5.35;;
70312;SDS011;57723;51.698;5.344;2023-07-09T07:20:15;10.80;;;5.43;;
70312;SDS011;57723;51.698;5.344;2023-07-09T07:22:41;13.07;;;6.10;;
70312;SDS011;57723;51.698;5.344;2023-07-09T07:25:07;13.05;;;5.80;;
70312;SDS011;57723;51.698;5.344;2023-07-09T07:27:33;10.30;;;6.07;;
70312;SDS011;57723;51.698;5.344;2023-07-09T07:30:00;11.63;;;5.93;;
70312;SDS011;57723;51.698;5.344;2023-07-09T07:32:25;10.20;;;5.63;;
70312;SDS011;57723;51.698;5.344;2023-07-09T07:34:51;14.03;;;6.00;;
70312;SDS011;57723;51.698;5.344;2023-07-09T07:37:20;10.85;;;6.10;;
70312;SDS011;57723;51.698;5.344;2023-07-09T07:39:46;10.50;;;5.63;;
70312;SDS011;57723;51.698;5.344;2023-07-09T07:42:11;10.63;;;6.00;;
70312;SDS011;57723;51.698;5.344;2023-07-09T07:44:36;10.73;;;5.87;;
70312;SDS011;57723;51.698;5.344;2023-07-09T07:47:02;9.27;;;5.80;;
70312;SDS011;57723;51.698;5.344;2023-07-09T07:49:28;10.80;;;6.07;;
70312;SDS011;57723;51.698;5.344;2023-07-09T07:51:53;11.63;;;5.97;;
70312;SDS011;57723;51.698;5.344;2023-07-09T07:54:18;9.47;;;5.87;;
70312;SDS011;57723;51.698;5.344;2023-07-09T07:56:44;13.87;;;5.77;;
70312;SDS011;57723;51.698;5.344;2023-07-09T07:59:09;11.67;;;5.90;;
70312;SDS011;57723;51.698;5.344;2023-07-09T08:01:35;15.40;;;5.77;;
70312;SDS011;57723;51.698;5.344;2023-07-09T08:04:01;9.20;;;5.43;;
70312;SDS011;57723;51.698;5.344;2023-07-09T08:06:27;10.10;;;5.43;;
70312;SDS011;57723;51.698;5.344;2023-07-09T08:08:52;12.73;;;6.20;;
70312;SDS011;57723;51.698;5.344;2023-07-09T08:11:18;13.27;;;5.93;;
70312;SDS011;57723;51.698;5.344;2023-07-09T08:13:43;10.33;;;5.70;;
70312;SDS011;57723;51.698;5.344;2023-07-09T08:16:09;11.47;;;5.90;;
70312;SDS011;57723;51.698;5.344;2023-07-09T08:18:36;9.30;;;5.20;;
70312;SDS011;57723;51.698;5.344;2023-07-09T08:21:05;10.33;;;5.90;;
70312;SDS011;57723;51.698;5.344;2023-07-09T08:23:31;9.43;;;5.60;;
70312;SDS011;57723;51.698;5.344;2023-07-09T08:25:57;9.30;;;5.60;;
70312;SDS011;57723;51.698;5.344;2023-07-09T08:28:22;9.85;;;5.20;;
70312;SDS011;57723;51.698;5.344;2023-07-09T08:30:51;9.75;;;5.97;;
70312;SDS011;57723;51.698;5.344;2023-07-09T08:33:17;12.17;;;5.83;;
70312;SDS011;57723;51.698;5.344;2023-07-09T08:35:43;11.95;;;5.85;;
70312;SDS011;57723;51.698;5.344;2023-07-09T08:38:08;9.97;;;5.97;;
70312;SDS011;57723;51.698;5.344;2023-07-09T08:40:35;10.43;;;5.70;;
70312;SDS011;57723;51.698;5.344;2023-07-09T08:43:06;11.18;;;5.35;;
70312;SDS011;57723;51.698;5.344;2023-07-09T08:48:15;9.05;;;5.43;;
70312;SDS011;57723;51.698;5.344;2023-07-09T08:50:48;9.38;;;5.40;;
70312;SDS011;57723;51.698;5.344;2023-07-09T08:53:20;10.90;;;5.23;;
70312;SDS011;57723;51.698;5.344;2023-07-09T08:55:47;11.93;;;5.57;;
70312;SDS011;57723;51.698;5.344;2023-07-09T08:58:18;9.45;;;5.38;;
70312;SDS011;57723;51.698;5.344;2023-07-09T09:03:23;8.68;;;5.20;;
70312;SDS011;57723;51.698;5.344;2023-07-09T09:05:52;10.03;;;5.43;;
70312;SDS011;57723;51.698;5.344;2023-07-09T09:10:52;8.57;;;5.40;;
70312;SDS011;57723;51.698;5.344;2023-07-09T09:13:20;10.50;;;5.57;;
70312;SDS011;57723;51.698;5.344;2023-07-09T09:15:48;10.57;;;5.53;;
70312;SDS011;57723;51.698;5.344;2023-07-09T09:20:47;8.27;;;5.35;;
70312;SDS011;57723;51.698;5.344;2023-07-09T09:23:16;10.07;;;5.53;;
70312;SDS011;57723;51.698;5.344;2023-07-09T09:25:42;10.23;;;5.27;;
70312;SDS011;57723;51.698;5.344;2023-07-09T09:28:09;7.95;;;5.15;;
70312;SDS011;57723;51.698;5.344;2023-07-09T09:30:34;7.97;;;5.10;;
70312;SDS011;57723;51.698;5.344;2023-07-09T09:33:01;8.77;;;4.57;;
70312;SDS011;57723;51.698;5.344;2023-07-09T09:35:30;9.13;;;5.27;;
70312;SDS011;57723;51.698;5.344;2023-07-09T09:37:57;8.98;;;4.78;;
70312;SDS011;57723;51.698;5.344;2023-07-09T09:40:27;9.65;;;5.10;;
70312;SDS011;57723;51.698;5.344;2023-07-09T09:42:57;8.35;;;4.93;;
70312;SDS011;57723;51.698;5.344;2023-07-09T09:45:33;10.48;;;5.50;;
70312;SDS011;57723;51.698;5.344;2023-07-09T09:48:03;10.23;;;5.30;;
70312;SDS011;57723;51.698;5.344;2023-07-09T09:50:35;7.82;;;4.75;;
70312;SDS011;57723;51.698;5.344;2023-07-09T09:53:01;7.47;;;5.00;;
70312;SDS011;57723;51.698;5.344;2023-07-09T09:55:31;7.80;;;4.53;;
70312;SDS011;57723;51.698;5.344;2023-07-09T09:57:57;7.47;;;4.45;;
70312;SDS011;57723;51.698;5.344;2023-07-09T10:00:24;6.70;;;5.00;;
70312;SDS011;57723;51.698;5.344;2023-07-09T10:02:50;8.75;;;4.97;;
70312;SDS011;57723;51.698;5.344;2023-07-09T10:05:16;7.40;;;4.73;;
70312;SDS011;57723;51.698;5.344;2023-07-09T10:10:28;7.45;;;4.50;;
70312;SDS011;57723;51.698;5.344;2023-07-09T10:15:43;8.50;;;4.22;;
70312;SDS011;57723;51.698;5.344;2023-07-09T10:18:20;6.57;;;4.90;;
70312;SDS011;57723;51.698;5.344;2023-07-09T10:33:56;8.15;;;4.68;;
70312;SDS011;57723;51.698;5.344;2023-07-09T10:41:28;7.37;;;4.90;;
70312;SDS011;57723;51.698;5.344;2023-07-09T10:44:02;7.70;;;4.57;;
70312;SDS011;57723;51.698;5.344;2023-07-09T10:46:32;7.70;;;4.97;;
70312;SDS011;57723;51.698;5.344;2023-07-09T10:48:58;7.55;;;4.43;;
70312;SDS011;57723;51.698;5.344;2023-07-09T10:51:30;7.63;;;4.65;;
70312;SDS011;57723;51.698;5.344;2023-07-09T10:56:41;6.87;;;4.80;;
70312;SDS011;57723;51.698;5.344;2023-07-09T10:59:14;8.85;;;4.63;;
70312;SDS011;57723;51.698;5.344;2023-07-09T11:01:45;6.82;;;4.60;;
70312;SDS011;57723;51.698;5.344;2023-07-09T11:06:56;6.70;;;4.47;;
70312;SDS011;57723;51.698;5.344;2023-07-09T11:09:33;7.63;;;4.50;;
70312;SDS011;57723;51.698;5.344;2023-07-09T11:12:02;7.95;;;4.22;;
70312;SDS011;57723;51.698;5.344;2023-07-09T11:16:55;7.47;;;4.63;;
70312;SDS011;57723;51.698;5.344;2023-07-09T11:19:21;7.25;;;4.40;;
70312;SDS011;57723;51.698;5.344;2023-07-09T11:24:32;6.88;;;4.18;;
70312;SDS011;57723;51.698;5.344;2023-07-09T11:26:58;5.40;;;3.80;;
70312;SDS011;57723;51.698;5.344;2023-07-09T11:29:25;6.20;;;4.20;;
70312;SDS011;57723;51.698;5.344;2023-07-09T11:31:50;6.90;;;4.37;;
70312;SDS011;57723;51.698;5.344;2023-07-09T11:34:17;7.30;;;4.47;;
70312;SDS011;57723;51.698;5.344;2023-07-09T11:36:50;7.20;;;4.50;;
70312;SDS011;57723;51.698;5.344;2023-07-09T11:39:17;7.60;;;4.47;;
70312;SDS011;57723;51.698;5.344;2023-07-09T11:41:43;7.57;;;4.50;;
70312;SDS011;57723;51.698;5.344;2023-07-09T11:46:52;7.57;;;5.00;;
70312;SDS011;57723;51.698;5.344;2023-07-09T11:49:19;7.78;;;4.88;;
70312;SDS011;57723;51.698;5.344;2023-07-09T11:51:46;8.85;;;4.47;;
70312;SDS011;57723;51.698;5.344;2023-07-09T11:54:14;6.38;;;4.38;;
70312;SDS011;57723;51.698;5.344;2023-07-09T11:56:40;6.80;;;4.57;;
70312;SDS011;57723;51.698;5.344;2023-07-09T11:59:07;6.68;;;4.43;;
70312;SDS011;57723;51.698;5.344;2023-07-09T12:01:42;7.65;;;4.95;;
70312;SDS011;57723;51.698;5.344;2023-07-09T12:04:16;7.23;;;4.40;;
70312;SDS011;57723;51.698;5.344;2023-07-09T12:06:42;7.70;;;5.00;;
70312;SDS011;57723;51.698;5.344;2023-07-09T12:09:19;8.35;;;4.10;;
70312;SDS011;57723;51.698;5.344;2023-07-09T12:11:46;9.32;;;4.60;;
70312;SDS011;57723;51.698;5.344;2023-07-09T12:14:13;7.82;;;4.70;;
70312;SDS011;57723;51.698;5.344;2023-07-09T12:16:46;7.27;;;4.93;;
70312;SDS011;57723;51.698;5.344;2023-07-09T12:19:13;7.50;;;5.07;;
70312;SDS011;57723;51.698;5.344;2023-07-09T12:21:40;6.28;;;4.40;;
70312;SDS011;57723;51.698;5.344;2023-07-09T12:24:15;7.85;;;4.60;;
70312;SDS011;57723;51.698;5.344;2023-07-09T12:26:43;8.07;;;4.80;;
70312;SDS011;57723;51.698;5.344;2023-07-09T12:29:08;7.72;;;4.80;;
70312;SDS011;57723;51.698;5.344;2023-07-09T12:31:34;7.07;;;4.73;;
70312;SDS011;57723;51.698;5.344;2023-07-09T12:34:00;7.38;;;5.18;;
70312;SDS011;57723;51.698;5.344;2023-07-09T12:36:25;7.90;;;5.23;;
70312;SDS011;57723;51.698;5.344;2023-07-09T12:38:53;7.35;;;5.10;;
70312;SDS011;57723;51.698;5.344;2023-07-09T12:41:20;7.93;;;4.80;;
70312;SDS011;57723;51.698;5.344;2023-07-09T12:43:47;7.15;;;4.75;;
70312;SDS011;57723;51.698;5.344;2023-07-09T12:46:13;8.70;;;5.93;;
70312;SDS011;57723;51.698;5.344;2023-07-09T12:48:38;8.93;;;5.17;;
70312;SDS011;57723;51.698;5.344;2023-07-09T12:51:06;8.10;;;4.70;;
70312;SDS011;57723;51.698;5.344;2023-07-09T12:53:38;7.53;;;5.18;;
70312;SDS011;57723;51.698;5.344;2023-07-09T12:56:07;9.85;;;5.70;;
70312;SDS011;57723;51.698;5.344;2023-07-09T12:58:36;7.97;;;5.17;;
70312;SDS011;57723;51.698;5.344;2023-07-09T13:01:08;9.70;;;5.30;;
70312;SDS011;57723;51.698;5.344;2023-07-09T13:03:38;9.02;;;5.80;;
70312;SDS011;57723;51.698;5.344;2023-07-09T13:06:04;8.40;;;5.30;;
70312;SDS011;57723;51.698;5.344;2023-07-09T13:08:40;8.48;;;5.10;;
70312;SDS011;57723;51.698;5.344;2023-07-09T13:11:16;8.60;;;5.35;;
70312;SDS011;57723;51.698;5.344;2023-07-09T13:13:53;12.18;;;6.25;;
70312;SDS011;57723;51.698;5.344;2023-07-09T13:16:18;9.00;;;5.60;;
70312;SDS011;57723;51.698;5.344;2023-07-09T13:18:44;8.77;;;5.97;;
70312;SDS011;57723;51.698;5.344;2023-07-09T13:21:13;8.70;;;6.00;;
70312;SDS011;57723;51.698;5.344;2023-07-09T13:23:40;9.85;;;5.57;;
70312;SDS011;57723;51.698;5.344;2023-07-09T13:26:07;9.45;;;5.95;;
70312;SDS011;57723;51.698;5.344;2023-07-09T13:28:33;8.40;;;5.30;;
70312;SDS011;57723;51.698;5.344;2023-07-09T13:30:59;11.57;;;5.80;;
70312;SDS011;57723;51.698;5.344;2023-07-09T13:33:25;11.32;;;6.47;;
70312;SDS011;57723;51.698;5.344;2023-07-09T13:35:51;8.60;;;5.50;;
70312;SDS011;57723;51.698;5.344;2023-07-09T13:38:19;9.68;;;6.07;;
70312;SDS011;57723;51.698;5.344;2023-07-09T13:40:46;13.45;;;6.28;;
70312;SDS011;57723;51.698;5.344;2023-07-09T13:43:18;7.50;;;5.60;;
70312;SDS011;57723;51.698;5.344;2023-07-09T13:45:44;10.15;;;6.30;;
70312;SDS011;57723;51.698;5.344;2023-07-09T13:48:12;9.35;;;6.38;;
70312;SDS011;57723;51.698;5.344;2023-07-09T13:50:38;8.82;;;5.97;;
70312;SDS011;57723;51.698;5.344;2023-07-09T13:53:03;9.03;;;5.93;;
70312;SDS011;57723;51.698;5.344;2023-07-09T13:55:29;8.77;;;6.00;;
70312;SDS011;57723;51.698;5.344;2023-07-09T13:57:54;10.57;;;6.23;;
70312;SDS011;57723;51.698;5.344;2023-07-09T14:00:19;8.40;;;5.90;;
70312;SDS011;57723;51.698;5.344;2023-07-09T14:02:47;10.40;;;6.20;;
70312;SDS011;57723;51.698;5.344;2023-07-09T14:05:12;9.00;;;6.07;;
70312;SDS011;57723;51.698;5.344;2023-07-09T14:07:41;9.03;;;5.53;;
70312;SDS011;57723;51.698;5.344;2023-07-09T14:10:10;9.13;;;5.63;;
70312;SDS011;57723;51.698;5.344;2023-07-09T14:12:37;8.77;;;4.80;;
70312;SDS011;57723;51.698;5.344;2023-07-09T14:15:05;8.65;;;5.18;;
70312;SDS011;57723;51.698;5.344;2023-07-09T14:17:35;9.30;;;5.57;;
70312;SDS011;57723;51.698;5.344;2023-07-09T14:20:01;8.20;;;5.63;;
70312;SDS011;57723;51.698;5.344;2023-07-09T14:22:33;9.80;;;5.43;;
70312;SDS011;57723;51.698;5.344;2023-07-09T14:24:59;8.18;;;5.07;;
70312;SDS011;57723;51.698;5.344;2023-07-09T14:27:25;8.87;;;5.43;;
70312;SDS011;57723;51.698;5.344;2023-07-09T14:29:50;10.30;;;5.60;;
70312;SDS011;57723;51.698;5.344;2023-07-09T14:32:34;8.47;;;5.30;;
70312;SDS011;57723;51.698;5.344;2023-07-09T14:35:01;9.98;;;4.90;;
70312;SDS011;57723;51.698;5.344;2023-07-09T14:37:27;8.20;;;5.13;;
70312;SDS011;57723;51.698;5.344;2023-07-09T14:39:52;7.82;;;4.60;;
70312;SDS011;57723;51.698;5.344;2023-07-09T14:42:18;7.90;;;4.93;;
70312;SDS011;57723;51.698;5.344;2023-07-09T14:44:44;9.52;;;5.10;;
70312;SDS011;57723;51.698;5.344;2023-07-09T14:47:19;7.03;;;4.50;;
70312;SDS011;57723;51.698;5.344;2023-07-09T14:49:45;10.20;;;4.63;;
70312;SDS011;57723;51.698;5.344;2023-07-09T14:52:13;7.07;;;4.17;;
70312;SDS011;57723;51.698;5.344;2023-07-09T14:54:40;8.80;;;3.85;;
70312;SDS011;57723;51.698;5.344;2023-07-09T14:57:27;7.30;;;3.70;;
70312;SDS011;57723;51.698;5.344;2023-07-09T14:59:52;5.80;;;3.53;;
70312;SDS011;57723;51.698;5.344;2023-07-09T15:02:39;7.15;;;3.40;;
70312;SDS011;57723;51.698;5.344;2023-07-09T15:05:04;5.57;;;3.20;;
70312;SDS011;57723;51.698;5.344;2023-07-09T15:07:32;6.78;;;3.22;;
70312;SDS011;57723;51.698;5.344;2023-07-09T15:09:57;7.37;;;3.07;;
70312;SDS011;57723;51.698;5.344;2023-07-09T15:12:25;6.43;;;3.25;;
70312;SDS011;57723;51.698;5.344;2023-07-09T15:14:51;6.78;;;3.10;;
70312;SDS011;57723;51.698;5.344;2023-07-09T15:17:16;7.30;;;3.40;;
70312;SDS011;57723;51.698;5.344;2023-07-09T15:19:41;11.00;;;3.80;;
70312;SDS011;57723;51.698;5.344;2023-07-09T15:22:14;5.97;;;3.60;;
70312;SDS011;57723;51.698;5.344;2023-07-09T15:24:42;7.03;;;3.25;;
70312;SDS011;57723;51.698;5.344;2023-07-09T15:27:08;5.60;;;2.93;;
70312;SDS011;57723;51.698;5.344;2023-07-09T15:29:33;6.67;;;3.10;;
70312;SDS011;57723;51.698;5.344;2023-07-09T15:31:58;6.90;;;2.90;;
70312;SDS011;57723;51.698;5.344;2023-07-09T15:34:24;7.43;;;3.47;;
70312;SDS011;57723;51.698;5.344;2023-07-09T15:36:51;7.70;;;3.30;;
70312;SDS011;57723;51.698;5.344;2023-07-09T15:39:17;6.40;;;3.20;;